sensor_id;sensor_type;location;lat;lon;timestamp;P1;durP1;ratioP1;P2;durP2;ratioP2
47147;SDS011;32900;47.498;8.738;2022-08-21T00:00:10;4.18;;;1.90;;
47147;SDS011;32900;47.498;8.738;2022-08-21T00:02:51;3.30;;;1.60;;
47147;SDS011;32900;47.498;8.738;2022-08-21T00:05:24;5.55;;;2.10;;
47147;SDS011;32900;47.498;8.738;2022-08-21T00:07:52;6.57;;;2.03;;
47147;SDS011;32900;47.498;8.738;2022-08-21T00:10:19;2.60;;;1.45;;
47147;SDS011;32900;47.498;8.738;2022-08-21T00:12:46;4.28;;;1.80;;
47147;SDS011;32900;47.498;8.738;2022-08-21T00:15:15;3.15;;;1.73;;
47147;SDS011;32900;47.498;8.738;2022-08-21T00:17:45;3.35;;;1.83;;
47147;SDS011;32900;47.498;8.738;2022-08-21T00:20:13;3.35;;;2.05;;
47147;SDS011;32900;47.498;8.738;2022-08-21T00:22:42;4.13;;;1.75;;
47147;SDS011;32900;47.498;8.738;2022-08-21T00:25:09;5.00;;;1.60;;
47147;SDS011;32900;47.498;8.738;2022-08-21T00:27:37;3.58;;;1.65;;
47147;SDS011;32900;47.498;8.738;2022-08-21T00:30:05;3.53;;;1.80;;
47147;SDS011;32900;47.498;8.738;2022-08-21T00:32:34;5.50;;;1.73;;
47147;SDS011;32900;47.498;8.738;2022-08-21T00:35:06;4.57;;;1.80;;
47147;SDS011;32900;47.498;8.738;2022-08-21T00:37:35;4.05;;;1.80;;
47147;SDS011;32900;47.498;8.738;2022-08-21T00:40:02;4.18;;;1.90;;
47147;SDS011;32900;47.498;8.738;2022-08-21T00:42:30;6.18;;;2.13;;
47147;SDS011;32900;47.498;8.738;2022-08-21T00:44:57;7.25;;;2.80;;
47147;SDS011;32900;47.498;8.738;2022-08-21T00:47:25;3.33;;;1.65;;
47147;SDS011;32900;47.498;8.738;2022-08-21T00:49:51;5.50;;;2.05;;
47147;SDS011;32900;47.498;8.738;2022-08-21T00:52:21;4.90;;;2.00;;
47147;SDS011;32900;47.498;8.738;2022-08-21T00:54:50;3.60;;;1.83;;
47147;SDS011;32900;47.498;8.738;2022-08-21T00:57:30;2.70;;;1.40;;
47147;SDS011;32900;47.498;8.738;2022-08-21T01:00:06;4.65;;;1.60;;
47147;SDS011;32900;47.498;8.738;2022-08-21T01:02:35;4.88;;;2.72;;
47147;SDS011;32900;47.498;8.738;2022-08-21T01:05:03;4.53;;;2.75;;
47147;SDS011;32900;47.498;8.738;2022-08-21T01:07:30;6.50;;;2.60;;
47147;SDS011;32900;47.498;8.738;2022-08-21T01:09:58;5.15;;;2.83;;
47147;SDS011;32900;47.498;8.738;2022-08-21T01:12:27;5.43;;;2.83;;
47147;SDS011;32900;47.498;8.738;2022-08-21T01:14:54;6.88;;;2.50;;
47147;SDS011;32900;47.498;8.738;2022-08-21T01:17:21;4.78;;;2.63;;
47147;SDS011;32900;47.498;8.738;2022-08-21T01:19:48;5.05;;;2.20;;
47147;SDS011;32900;47.498;8.738;2022-08-21T01:22:15;3.70;;;2.08;;
47147;SDS011;32900;47.498;8.738;2022-08-21T01:24:42;4.15;;;2.20;;
47147;SDS011;32900;47.498;8.738;2022-08-21T01:27:09;5.68;;;2.45;;
47147;SDS011;32900;47.498;8.738;2022-08-21T01:32:31;4.25;;;2.28;;
47147;SDS011;32900;47.498;8.738;2022-08-21T01:34:58;4.63;;;2.60;;
47147;SDS011;32900;47.498;8.738;2022-08-21T01:37:25;5.20;;;2.30;;
47147;SDS011;32900;47.498;8.738;2022-08-21T01:39:52;3.53;;;2.20;;
47147;SDS011;32900;47.498;8.738;2022-08-21T01:42:19;3.35;;;2.08;;
47147;SDS011;32900;47.498;8.738;2022-08-21T01:44:46;5.88;;;2.70;;
47147;SDS011;32900;47.498;8.738;2022-08-21T01:47:14;5.32;;;2.70;;
47147;SDS011;32900;47.498;8.738;2022-08-21T01:49:43;6.80;;;2.47;;
47147;SDS011;32900;47.498;8.738;2022-08-21T01:52:11;5.40;;;2.10;;
47147;SDS011;32900;47.498;8.738;2022-08-21T01:54:39;4.50;;;2.20;;
47147;SDS011;32900;47.498;8.738;2022-08-21T01:57:06;3.38;;;2.00;;
47147;SDS011;32900;47.498;8.738;2022-08-21T01:59:35;6.22;;;1.85;;
47147;SDS011;32900;47.498;8.738;2022-08-21T02:02:03;5.50;;;1.73;;
47147;SDS011;32900;47.498;8.738;2022-08-21T02:04:30;3.03;;;1.50;;
47147;SDS011;32900;47.498;8.738;2022-08-21T02:06:59;2.47;;;1.63;;
47147;SDS011;32900;47.498;8.738;2022-08-21T02:09:27;4.55;;;1.60;;
47147;SDS011;32900;47.498;8.738;2022-08-21T02:11:55;2.63;;;1.60;;
47147;SDS011;32900;47.498;8.738;2022-08-21T02:14:22;4.60;;;1.42;;
47147;SDS011;32900;47.498;8.738;2022-08-21T02:16:57;2.20;;;1.40;;
47147;SDS011;32900;47.498;8.738;2022-08-21T02:19:34;7.78;;;2.00;;
47147;SDS011;32900;47.498;8.738;2022-08-21T02:22:05;2.42;;;1.30;;
47147;SDS011;32900;47.498;8.738;2022-08-21T02:58:26;4.80;;;1.30;;
47147;SDS011;32900;47.498;8.738;2022-08-21T03:00:58;2.70;;;1.45;;
47147;SDS011;32900;47.498;8.738;2022-08-21T03:03:26;8.40;;;1.80;;
47147;SDS011;32900;47.498;8.738;2022-08-21T03:05:54;2.15;;;1.30;;
47147;SDS011;32900;47.498;8.738;2022-08-21T03:08:21;3.78;;;1.80;;
47147;SDS011;32900;47.498;8.738;2022-08-21T03:10:53;3.30;;;1.37;;
47147;SDS011;32900;47.498;8.738;2022-08-21T03:13:20;3.55;;;1.80;;
47147;SDS011;32900;47.498;8.738;2022-08-21T03:15:47;3.65;;;1.38;;
47147;SDS011;32900;47.498;8.738;2022-08-21T03:18:15;2.30;;;1.40;;
47147;SDS011;32900;47.498;8.738;2022-08-21T03:20:44;1.98;;;1.30;;
47147;SDS011;32900;47.498;8.738;2022-08-21T03:23:12;3.70;;;1.40;;
47147;SDS011;32900;47.498;8.738;2022-08-21T03:25:44;5.77;;;1.37;;
47147;SDS011;32900;47.498;8.738;2022-08-21T03:28:14;5.40;;;1.48;;
47147;SDS011;32900;47.498;8.738;2022-08-21T03:30:43;1.92;;;1.20;;
47147;SDS011;32900;47.498;8.738;2022-08-21T03:33:12;2.88;;;1.80;;
47147;SDS011;32900;47.498;8.738;2022-08-21T03:35:41;5.78;;;1.27;;
47147;SDS011;32900;47.498;8.738;2022-08-21T03:38:09;3.42;;;1.30;;
47147;SDS011;32900;47.498;8.738;2022-08-21T03:40:38;3.50;;;1.17;;
47147;SDS011;32900;47.498;8.738;2022-08-21T03:43:06;3.67;;;1.30;;
47147;SDS011;32900;47.498;8.738;2022-08-21T03:45:36;7.82;;;2.97;;
47147;SDS011;32900;47.498;8.738;2022-08-21T03:48:04;7.00;;;2.75;;
47147;SDS011;32900;47.498;8.738;2022-08-21T03:50:35;3.92;;;1.42;;
47147;SDS011;32900;47.498;8.738;2022-08-21T03:53:08;4.35;;;1.52;;
47147;SDS011;32900;47.498;8.738;2022-08-21T03:55:43;2.85;;;1.13;;
47147;SDS011;32900;47.498;8.738;2022-08-21T03:58:12;3.08;;;1.30;;
47147;SDS011;32900;47.498;8.738;2022-08-21T04:00:42;2.13;;;1.15;;
47147;SDS011;32900;47.498;8.738;2022-08-21T04:03:11;2.17;;;1.20;;
47147;SDS011;32900;47.498;8.738;2022-08-21T04:05:38;5.45;;;1.30;;
47147;SDS011;32900;47.498;8.738;2022-08-21T04:08:05;4.75;;;1.40;;
47147;SDS011;32900;47.498;8.738;2022-08-21T04:10:33;2.38;;;1.20;;
47147;SDS011;32900;47.498;8.738;2022-08-21T04:13:02;2.38;;;1.33;;
47147;SDS011;32900;47.498;8.738;2022-08-21T04:15:31;6.40;;;2.17;;
47147;SDS011;32900;47.498;8.738;2022-08-21T04:17:58;4.50;;;1.40;;
47147;SDS011;32900;47.498;8.738;2022-08-21T04:20:25;5.15;;;1.60;;
47147;SDS011;32900;47.498;8.738;2022-08-21T04:22:52;3.92;;;1.80;;
47147;SDS011;32900;47.498;8.738;2022-08-21T04:25:20;4.03;;;1.77;;
47147;SDS011;32900;47.498;8.738;2022-08-21T04:27:48;4.95;;;1.77;;
47147;SDS011;32900;47.498;8.738;2022-08-21T04:30:15;2.25;;;1.25;;
47147;SDS011;32900;47.498;8.738;2022-08-21T04:32:46;3.30;;;1.40;;
47147;SDS011;32900;47.498;8.738;2022-08-21T04:35:15;3.92;;;1.60;;
47147;SDS011;32900;47.498;8.738;2022-08-21T04:37:43;4.10;;;1.45;;
47147;SDS011;32900;47.498;8.738;2022-08-21T04:40:11;4.57;;;2.00;;
47147;SDS011;32900;47.498;8.738;2022-08-21T04:42:42;3.22;;;1.65;;
47147;SDS011;32900;47.498;8.738;2022-08-21T04:47:47;4.10;;;1.55;;
47147;SDS011;32900;47.498;8.738;2022-08-21T04:50:18;4.93;;;1.35;;
47147;SDS011;32900;47.498;8.738;2022-08-21T04:52:49;3.72;;;1.63;;
47147;SDS011;32900;47.498;8.738;2022-08-21T04:55:16;2.25;;;1.40;;
47147;SDS011;32900;47.498;8.738;2022-08-21T04:57:44;3.08;;;1.55;;
47147;SDS011;32900;47.498;8.738;2022-08-21T05:00:15;5.38;;;1.50;;
47147;SDS011;32900;47.498;8.738;2022-08-21T05:02:45;2.72;;;1.20;;
47147;SDS011;32900;47.498;8.738;2022-08-21T05:05:13;2.65;;;1.30;;
47147;SDS011;32900;47.498;8.738;2022-08-21T05:07:41;3.60;;;1.30;;
47147;SDS011;32900;47.498;8.738;2022-08-21T05:10:11;2.53;;;1.35;;
47147;SDS011;32900;47.498;8.738;2022-08-21T05:12:41;8.07;;;2.10;;
47147;SDS011;32900;47.498;8.738;2022-08-21T05:15:09;5.10;;;2.10;;
47147;SDS011;32900;47.498;8.738;2022-08-21T05:17:40;5.22;;;2.10;;
47147;SDS011;32900;47.498;8.738;2022-08-21T05:20:11;4.97;;;2.13;;
47147;SDS011;32900;47.498;8.738;2022-08-21T05:22:39;5.10;;;2.17;;
47147;SDS011;32900;47.498;8.738;2022-08-21T05:25:06;5.55;;;2.67;;
47147;SDS011;32900;47.498;8.738;2022-08-21T05:27:36;6.30;;;2.80;;
47147;SDS011;32900;47.498;8.738;2022-08-21T05:30:07;9.15;;;3.40;;
47147;SDS011;32900;47.498;8.738;2022-08-21T05:32:35;9.07;;;3.58;;
47147;SDS011;32900;47.498;8.738;2022-08-21T05:35:05;10.48;;;3.67;;
47147;SDS011;32900;47.498;8.738;2022-08-21T05:37:33;6.00;;;3.00;;
47147;SDS011;32900;47.498;8.738;2022-08-21T05:40:01;6.93;;;3.50;;
47147;SDS011;32900;47.498;8.738;2022-08-21T05:42:48;5.75;;;2.83;;
47147;SDS011;32900;47.498;8.738;2022-08-21T05:45:20;7.93;;;4.63;;
47147;SDS011;32900;47.498;8.738;2022-08-21T05:48:18;9.98;;;4.15;;
47147;SDS011;32900;47.498;8.738;2022-08-21T05:50:47;12.57;;;5.35;;
47147;SDS011;32900;47.498;8.738;2022-08-21T05:53:16;8.68;;;4.65;;
47147;SDS011;32900;47.498;8.738;2022-08-21T05:55:44;14.32;;;4.90;;
47147;SDS011;32900;47.498;8.738;2022-08-21T05:58:13;11.35;;;5.97;;
47147;SDS011;32900;47.498;8.738;2022-08-21T06:00:41;11.93;;;5.63;;
47147;SDS011;32900;47.498;8.738;2022-08-21T06:03:21;13.80;;;5.45;;
47147;SDS011;32900;47.498;8.738;2022-08-21T06:05:49;11.27;;;5.25;;
47147;SDS011;32900;47.498;8.738;2022-08-21T06:08:17;10.32;;;4.88;;
47147;SDS011;32900;47.498;8.738;2022-08-21T06:10:45;10.30;;;4.95;;
47147;SDS011;32900;47.498;8.738;2022-08-21T06:13:14;8.07;;;4.45;;
47147;SDS011;32900;47.498;8.738;2022-08-21T06:15:42;5.97;;;3.38;;
47147;SDS011;32900;47.498;8.738;2022-08-21T06:18:09;6.38;;;3.70;;
47147;SDS011;32900;47.498;8.738;2022-08-21T06:20:37;10.68;;;5.13;;
47147;SDS011;32900;47.498;8.738;2022-08-21T06:23:05;9.82;;;5.22;;
47147;SDS011;32900;47.498;8.738;2022-08-21T06:25:32;8.73;;;4.72;;
47147;SDS011;32900;47.498;8.738;2022-08-21T06:28:08;8.55;;;4.80;;
47147;SDS011;32900;47.498;8.738;2022-08-21T06:30:36;9.77;;;5.60;;
47147;SDS011;32900;47.498;8.738;2022-08-21T06:33:05;10.82;;;6.30;;
47147;SDS011;32900;47.498;8.738;2022-08-21T06:35:33;9.75;;;5.95;;
47147;SDS011;32900;47.498;8.738;2022-08-21T06:38:01;10.27;;;5.30;;
47147;SDS011;32900;47.498;8.738;2022-08-21T06:40:28;9.27;;;5.68;;
47147;SDS011;32900;47.498;8.738;2022-08-21T06:43:07;8.10;;;5.20;;
47147;SDS011;32900;47.498;8.738;2022-08-21T06:45:40;8.00;;;5.22;;
47147;SDS011;32900;47.498;8.738;2022-08-21T06:48:07;8.50;;;5.20;;
47147;SDS011;32900;47.498;8.738;2022-08-21T06:50:34;8.77;;;5.10;;
47147;SDS011;32900;47.498;8.738;2022-08-21T06:53:04;7.63;;;5.10;;
47147;SDS011;32900;47.498;8.738;2022-08-21T06:55:36;7.85;;;4.88;;
47147;SDS011;32900;47.498;8.738;2022-08-21T06:58:04;7.97;;;5.00;;
47147;SDS011;32900;47.498;8.738;2022-08-21T07:00:32;8.50;;;5.03;;
47147;SDS011;32900;47.498;8.738;2022-08-21T07:03:00;8.25;;;4.80;;
47147;SDS011;32900;47.498;8.738;2022-08-21T07:05:28;7.85;;;5.28;;
47147;SDS011;32900;47.498;8.738;2022-08-21T07:07:55;7.68;;;4.95;;
47147;SDS011;32900;47.498;8.738;2022-08-21T07:10:26;6.53;;;4.00;;
47147;SDS011;32900;47.498;8.738;2022-08-21T07:12:54;6.18;;;4.25;;
47147;SDS011;32900;47.498;8.738;2022-08-21T07:15:27;5.70;;;3.53;;
47147;SDS011;32900;47.498;8.738;2022-08-21T07:17:56;7.72;;;4.03;;
47147;SDS011;32900;47.498;8.738;2022-08-21T07:20:23;4.95;;;3.47;;
47147;SDS011;32900;47.498;8.738;2022-08-21T07:22:50;5.35;;;3.05;;
47147;SDS011;32900;47.498;8.738;2022-08-21T07:25:17;3.90;;;2.88;;
47147;SDS011;32900;47.498;8.738;2022-08-21T07:27:44;4.55;;;2.70;;
47147;SDS011;32900;47.498;8.738;2022-08-21T07:30:10;4.75;;;3.50;;
47147;SDS011;32900;47.498;8.738;2022-08-21T07:32:37;4.97;;;3.42;;
47147;SDS011;32900;47.498;8.738;2022-08-21T07:35:04;5.40;;;3.25;;
47147;SDS011;32900;47.498;8.738;2022-08-21T07:37:31;5.30;;;3.42;;
47147;SDS011;32900;47.498;8.738;2022-08-21T07:39:58;4.60;;;3.35;;
47147;SDS011;32900;47.498;8.738;2022-08-21T07:42:24;5.03;;;3.45;;
47147;SDS011;32900;47.498;8.738;2022-08-21T07:44:52;5.43;;;3.45;;
47147;SDS011;32900;47.498;8.738;2022-08-21T07:47:21;5.10;;;3.70;;
47147;SDS011;32900;47.498;8.738;2022-08-21T07:50:07;4.80;;;3.08;;
47147;SDS011;32900;47.498;8.738;2022-08-21T07:52:35;5.03;;;2.85;;
47147;SDS011;32900;47.498;8.738;2022-08-21T07:55:03;3.95;;;2.50;;
47147;SDS011;32900;47.498;8.738;2022-08-21T07:57:32;3.70;;;2.38;;
47147;SDS011;32900;47.498;8.738;2022-08-21T07:59:59;3.50;;;2.13;;
47147;SDS011;32900;47.498;8.738;2022-08-21T08:02:26;4.03;;;2.53;;
47147;SDS011;32900;47.498;8.738;2022-08-21T08:04:58;3.85;;;2.65;;
47147;SDS011;32900;47.498;8.738;2022-08-21T08:07:27;4.70;;;2.10;;
47147;SDS011;32900;47.498;8.738;2022-08-21T08:09:53;3.97;;;2.60;;
47147;SDS011;32900;47.498;8.738;2022-08-21T08:12:20;3.28;;;2.20;;
47147;SDS011;32900;47.498;8.738;2022-08-21T08:14:47;3.63;;;2.38;;
47147;SDS011;32900;47.498;8.738;2022-08-21T08:17:14;3.83;;;2.50;;
47147;SDS011;32900;47.498;8.738;2022-08-21T08:19:40;3.35;;;2.15;;
47147;SDS011;32900;47.498;8.738;2022-08-21T08:22:17;3.88;;;1.65;;
47147;SDS011;32900;47.498;8.738;2022-08-21T08:24:46;4.13;;;1.95;;
47147;SDS011;32900;47.498;8.738;2022-08-21T08:27:13;3.75;;;1.75;;
47147;SDS011;32900;47.498;8.738;2022-08-21T08:29:40;4.30;;;2.08;;
47147;SDS011;32900;47.498;8.738;2022-08-21T08:32:07;5.10;;;2.50;;
47147;SDS011;32900;47.498;8.738;2022-08-21T08:34:35;4.15;;;2.30;;
47147;SDS011;32900;47.498;8.738;2022-08-21T08:37:03;8.80;;;3.65;;
47147;SDS011;32900;47.498;8.738;2022-08-21T08:39:33;4.70;;;2.90;;
47147;SDS011;32900;47.498;8.738;2022-08-21T08:45:16;5.18;;;3.33;;
47147;SDS011;32900;47.498;8.738;2022-08-21T08:47:45;5.20;;;3.47;;
47147;SDS011;32900;47.498;8.738;2022-08-21T08:50:44;6.30;;;3.67;;
47147;SDS011;32900;47.498;8.738;2022-08-21T08:53:17;5.60;;;3.58;;
47147;SDS011;32900;47.498;8.738;2022-08-21T08:55:48;4.60;;;3.17;;
47147;SDS011;32900;47.498;8.738;2022-08-21T08:58:20;5.45;;;3.63;;
47147;SDS011;32900;47.498;8.738;2022-08-21T09:00:51;4.65;;;3.25;;
47147;SDS011;32900;47.498;8.738;2022-08-21T09:03:20;6.65;;;2.95;;
47147;SDS011;32900;47.498;8.738;2022-08-21T09:11:13;5.15;;;2.90;;
47147;SDS011;32900;47.498;8.738;2022-08-21T09:16:39;5.32;;;2.53;;
47147;SDS011;32900;47.498;8.738;2022-08-21T09:27:19;4.55;;;2.92;;
47147;SDS011;32900;47.498;8.738;2022-08-21T09:29:48;4.95;;;2.10;;
47147;SDS011;32900;47.498;8.738;2022-08-21T09:32:22;5.50;;;2.97;;
47147;SDS011;32900;47.498;8.738;2022-08-21T09:35:08;8.57;;;2.70;;
47147;SDS011;32900;47.498;8.738;2022-08-21T09:40:33;3.90;;;2.38;;
47147;SDS011;32900;47.498;8.738;2022-08-21T09:43:02;6.32;;;3.25;;
47147;SDS011;32900;47.498;8.738;2022-08-21T09:46:02;6.25;;;2.90;;
47147;SDS011;32900;47.498;8.738;2022-08-21T09:48:39;5.63;;;2.67;;
47147;SDS011;32900;47.498;8.738;2022-08-21T09:51:12;6.00;;;3.00;;
47147;SDS011;32900;47.498;8.738;2022-08-21T09:53:49;5.05;;;2.60;;
47147;SDS011;32900;47.498;8.738;2022-08-21T09:56:33;5.75;;;2.53;;
47147;SDS011;32900;47.498;8.738;2022-08-21T09:59:26;4.45;;;2.47;;
47147;SDS011;32900;47.498;8.738;2022-08-21T10:04:55;8.35;;;2.88;;
47147;SDS011;32900;47.498;8.738;2022-08-21T10:07:24;7.75;;;2.47;;
47147;SDS011;32900;47.498;8.738;2022-08-21T10:21:01;4.22;;;2.40;;
47147;SDS011;32900;47.498;8.738;2022-08-21T10:23:36;7.60;;;2.50;;
47147;SDS011;32900;47.498;8.738;2022-08-21T10:27:09;6.07;;;2.58;;
47147;SDS011;32900;47.498;8.738;2022-08-21T10:32:24;5.18;;;2.15;;
47147;SDS011;32900;47.498;8.738;2022-08-21T10:46:00;5.05;;;2.00;;
47147;SDS011;32900;47.498;8.738;2022-08-21T10:56:36;4.95;;;1.90;;
47147;SDS011;32900;47.498;8.738;2022-08-21T11:04:43;4.13;;;1.77;;
47147;SDS011;32900;47.498;8.738;2022-08-21T11:09:49;6.38;;;2.13;;
47147;SDS011;32900;47.498;8.738;2022-08-21T11:12:23;3.88;;;2.00;;
47147;SDS011;32900;47.498;8.738;2022-08-21T11:14:59;5.30;;;1.90;;
47147;SDS011;32900;47.498;8.738;2022-08-21T11:17:34;5.57;;;2.00;;
47147;SDS011;32900;47.498;8.738;2022-08-21T11:20:12;7.55;;;2.10;;
47147;SDS011;32900;47.498;8.738;2022-08-21T11:22:50;4.38;;;1.90;;
47147;SDS011;32900;47.498;8.738;2022-08-21T11:25:39;6.15;;;2.03;;
47147;SDS011;32900;47.498;8.738;2022-08-21T11:31:11;4.72;;;1.90;;
47147;SDS011;32900;47.498;8.738;2022-08-21T11:33:57;4.90;;;1.73;;
47147;SDS011;32900;47.498;8.738;2022-08-21T11:39:02;5.03;;;2.30;;
47147;SDS011;32900;47.498;8.738;2022-08-21T11:41:37;3.35;;;1.80;;
47147;SDS011;32900;47.498;8.738;2022-08-21T11:44:11;6.28;;;2.20;;
47147;SDS011;32900;47.498;8.738;2022-08-21T11:46:56;6.65;;;2.22;;
47147;SDS011;32900;47.498;8.738;2022-08-21T11:57:58;4.28;;;1.50;;
47147;SDS011;32900;47.498;8.738;2022-08-21T12:00:53;3.35;;;1.40;;
47147;SDS011;32900;47.498;8.738;2022-08-21T12:03:34;4.20;;;1.35;;
47147;SDS011;32900;47.498;8.738;2022-08-21T12:06:04;2.67;;;1.30;;
47147;SDS011;32900;47.498;8.738;2022-08-21T12:08:37;5.05;;;1.35;;
47147;SDS011;32900;47.498;8.738;2022-08-21T12:11:09;2.58;;;1.13;;
47147;SDS011;32900;47.498;8.738;2022-08-21T12:16:44;5.20;;;1.30;;
47147;SDS011;32900;47.498;8.738;2022-08-21T12:22:06;5.68;;;1.60;;
47147;SDS011;32900;47.498;8.738;2022-08-21T12:27:20;3.45;;;1.30;;
47147;SDS011;32900;47.498;8.738;2022-08-21T12:29:56;4.85;;;1.60;;
47147;SDS011;32900;47.498;8.738;2022-08-21T12:32:27;3.55;;;1.40;;
47147;SDS011;32900;47.498;8.738;2022-08-21T12:35:02;3.22;;;1.50;;
47147;SDS011;32900;47.498;8.738;2022-08-21T12:37:51;3.83;;;1.58;;
47147;SDS011;32900;47.498;8.738;2022-08-21T12:40:25;3.53;;;1.58;;
47147;SDS011;32900;47.498;8.738;2022-08-21T12:43:00;3.15;;;1.30;;
47147;SDS011;32900;47.498;8.738;2022-08-21T12:45:49;3.30;;;1.30;;
47147;SDS011;32900;47.498;8.738;2022-08-21T12:48:22;6.20;;;1.50;;
47147;SDS011;32900;47.498;8.738;2022-08-21T12:51:14;2.90;;;1.20;;
47147;SDS011;32900;47.498;8.738;2022-08-21T12:56:16;6.77;;;1.53;;
47147;SDS011;32900;47.498;8.738;2022-08-21T12:58:47;3.30;;;1.33;;
47147;SDS011;32900;47.498;8.738;2022-08-21T13:01:21;4.28;;;1.48;;
47147;SDS011;32900;47.498;8.738;2022-08-21T13:04:07;4.95;;;1.45;;
47147;SDS011;32900;47.498;8.738;2022-08-21T13:06:38;3.30;;;1.20;;
47147;SDS011;32900;47.498;8.738;2022-08-21T13:09:09;3.67;;;1.25;;
47147;SDS011;32900;47.498;8.738;2022-08-21T13:11:40;5.80;;;1.52;;
47147;SDS011;32900;47.498;8.738;2022-08-21T13:14:21;3.53;;;1.42;;
47147;SDS011;32900;47.498;8.738;2022-08-21T13:16:58;3.72;;;1.50;;
47147;SDS011;32900;47.498;8.738;2022-08-21T13:19:26;3.25;;;1.20;;
47147;SDS011;32900;47.498;8.738;2022-08-21T13:21:55;4.50;;;1.35;;
47147;SDS011;32900;47.498;8.738;2022-08-21T13:24:27;2.40;;;1.00;;
47147;SDS011;32900;47.498;8.738;2022-08-21T13:30:10;2.35;;;1.00;;
47147;SDS011;32900;47.498;8.738;2022-08-21T13:32:40;4.07;;;1.17;;
47147;SDS011;32900;47.498;8.738;2022-08-21T13:35:14;2.95;;;1.30;;
47147;SDS011;32900;47.498;8.738;2022-08-21T13:37:41;2.05;;;1.10;;
47147;SDS011;32900;47.498;8.738;2022-08-21T13:40:11;2.83;;;1.10;;
47147;SDS011;32900;47.498;8.738;2022-08-21T13:42:44;5.40;;;1.50;;
47147;SDS011;32900;47.498;8.738;2022-08-21T13:45:21;2.03;;;1.00;;
47147;SDS011;32900;47.498;8.738;2022-08-21T13:47:53;4.90;;;1.10;;
47147;SDS011;32900;47.498;8.738;2022-08-21T13:50:22;3.72;;;1.50;;
47147;SDS011;32900;47.498;8.738;2022-08-21T13:53:06;2.58;;;1.20;;
47147;SDS011;32900;47.498;8.738;2022-08-21T13:55:44;3.42;;;1.17;;
47147;SDS011;32900;47.498;8.738;2022-08-21T13:58:11;3.75;;;1.10;;
47147;SDS011;32900;47.498;8.738;2022-08-21T14:00:46;4.90;;;1.27;;
47147;SDS011;32900;47.498;8.738;2022-08-21T14:03:23;1.80;;;1.00;;
47147;SDS011;32900;47.498;8.738;2022-08-21T14:06:01;2.53;;;1.10;;
47147;SDS011;32900;47.498;8.738;2022-08-21T14:11:02;1.63;;;0.85;;
47147;SDS011;32900;47.498;8.738;2022-08-21T14:16:10;4.30;;;1.00;;
47147;SDS011;32900;47.498;8.738;2022-08-21T14:18:44;1.90;;;1.17;;
47147;SDS011;32900;47.498;8.738;2022-08-21T14:21:22;1.48;;;0.90;;
47147;SDS011;32900;47.498;8.738;2022-08-21T14:24:03;2.05;;;0.95;;
47147;SDS011;32900;47.498;8.738;2022-08-21T14:26:37;1.63;;;0.77;;
47147;SDS011;32900;47.498;8.738;2022-08-21T14:29:12;1.73;;;0.80;;
47147;SDS011;32900;47.498;8.738;2022-08-21T14:31:41;4.65;;;1.10;;
47147;SDS011;32900;47.498;8.738;2022-08-21T14:34:10;2.55;;;1.00;;
47147;SDS011;32900;47.498;8.738;2022-08-21T14:36:44;2.40;;;1.00;;
47147;SDS011;32900;47.498;8.738;2022-08-21T14:39:12;2.65;;;0.80;;
47147;SDS011;32900;47.498;8.738;2022-08-21T14:41:39;4.95;;;1.20;;
47147;SDS011;32900;47.498;8.738;2022-08-21T14:44:08;3.35;;;0.95;;
47147;SDS011;32900;47.498;8.738;2022-08-21T14:46:36;1.80;;;0.77;;
47147;SDS011;32900;47.498;8.738;2022-08-21T14:49:20;3.88;;;1.00;;
47147;SDS011;32900;47.498;8.738;2022-08-21T14:51:47;2.30;;;1.08;;
47147;SDS011;32900;47.498;8.738;2022-08-21T14:54:19;2.63;;;0.90;;
47147;SDS011;32900;47.498;8.738;2022-08-21T14:56:56;3.05;;;1.05;;
47147;SDS011;32900;47.498;8.738;2022-08-21T14:59:25;2.58;;;1.20;;
47147;SDS011;32900;47.498;8.738;2022-08-21T15:01:51;2.00;;;1.00;;
47147;SDS011;32900;47.498;8.738;2022-08-21T15:04:18;2.67;;;0.90;;
47147;SDS011;32900;47.498;8.738;2022-08-21T15:06:45;1.23;;;0.80;;
47147;SDS011;32900;47.498;8.738;2022-08-21T15:09:12;1.80;;;1.02;;
47147;SDS011;32900;47.498;8.738;2022-08-21T15:11:38;3.30;;;1.10;;
47147;SDS011;32900;47.498;8.738;2022-08-21T15:14:08;3.05;;;0.98;;
47147;SDS011;32900;47.498;8.738;2022-08-21T15:16:39;1.85;;;1.00;;
47147;SDS011;32900;47.498;8.738;2022-08-21T15:19:06;1.92;;;0.77;;
47147;SDS011;32900;47.498;8.738;2022-08-21T15:21:33;2.40;;;1.00;;
47147;SDS011;32900;47.498;8.738;2022-08-21T15:23:59;4.15;;;0.90;;
47147;SDS011;32900;47.498;8.738;2022-08-21T15:26:26;2.53;;;0.90;;
47147;SDS011;32900;47.498;8.738;2022-08-21T15:28:53;1.35;;;0.80;;
47147;SDS011;32900;47.498;8.738;2022-08-21T15:31:19;1.35;;;0.90;;
47147;SDS011;32900;47.498;8.738;2022-08-21T15:33:46;1.52;;;0.80;;
47147;SDS011;32900;47.498;8.738;2022-08-21T15:36:13;3.00;;;1.10;;
47147;SDS011;32900;47.498;8.738;2022-08-21T15:38:40;2.25;;;0.82;;
47147;SDS011;32900;47.498;8.738;2022-08-21T15:41:06;2.28;;;1.00;;
47147;SDS011;32900;47.498;8.738;2022-08-21T15:46:09;1.38;;;0.80;;
47147;SDS011;32900;47.498;8.738;2022-08-21T15:48:39;3.38;;;0.80;;
47147;SDS011;32900;47.498;8.738;2022-08-21T15:51:05;1.88;;;0.70;;
47147;SDS011;32900;47.498;8.738;2022-08-21T15:53:35;1.50;;;0.90;;
47147;SDS011;32900;47.498;8.738;2022-08-21T15:56:19;1.55;;;0.80;;
47147;SDS011;32900;47.498;8.738;2022-08-21T15:58:49;2.17;;;0.80;;
47147;SDS011;32900;47.498;8.738;2022-08-21T16:01:17;1.65;;;0.80;;
47147;SDS011;32900;47.498;8.738;2022-08-21T16:03:47;2.95;;;1.75;;
47147;SDS011;32900;47.498;8.738;2022-08-21T16:06:16;2.40;;;0.98;;
47147;SDS011;32900;47.498;8.738;2022-08-21T16:09:02;1.42;;;0.65;;
47147;SDS011;32900;47.498;8.738;2022-08-21T16:11:29;1.50;;;0.68;;
47147;SDS011;32900;47.498;8.738;2022-08-21T16:13:56;3.20;;;1.95;;
47147;SDS011;32900;47.498;8.738;2022-08-21T16:16:23;2.65;;;1.50;;
47147;SDS011;32900;47.498;8.738;2022-08-21T16:18:50;5.10;;;2.55;;
47147;SDS011;32900;47.498;8.738;2022-08-21T16:21:20;2.92;;;0.73;;
47147;SDS011;32900;47.498;8.738;2022-08-21T16:23:46;1.80;;;0.98;;
47147;SDS011;32900;47.498;8.738;2022-08-21T16:26:14;2.67;;;0.77;;
47147;SDS011;32900;47.498;8.738;2022-08-21T16:28:43;1.85;;;0.90;;
47147;SDS011;32900;47.498;8.738;2022-08-21T16:31:13;4.43;;;0.80;;
47147;SDS011;32900;47.498;8.738;2022-08-21T16:33:42;2.08;;;1.00;;
47147;SDS011;32900;47.498;8.738;2022-08-21T16:36:12;3.03;;;1.10;;
47147;SDS011;32900;47.498;8.738;2022-08-21T16:38:39;1.38;;;0.85;;
47147;SDS011;32900;47.498;8.738;2022-08-21T16:41:07;1.25;;;0.75;;
47147;SDS011;32900;47.498;8.738;2022-08-21T16:43:37;1.35;;;0.80;;
47147;SDS011;32900;47.498;8.738;2022-08-21T16:46:05;1.52;;;0.80;;
47147;SDS011;32900;47.498;8.738;2022-08-21T16:48:35;2.30;;;1.00;;
47147;SDS011;32900;47.498;8.738;2022-08-21T16:51:02;1.30;;;0.80;;
47147;SDS011;32900;47.498;8.738;2022-08-21T16:53:30;3.92;;;1.40;;
47147;SDS011;32900;47.498;8.738;2022-08-21T16:55:56;2.67;;;1.10;;
47147;SDS011;32900;47.498;8.738;2022-08-21T17:00:55;2.35;;;0.88;;
47147;SDS011;32900;47.498;8.738;2022-08-21T17:03:28;3.42;;;0.70;;
47147;SDS011;32900;47.498;8.738;2022-08-21T17:06:01;1.77;;;0.70;;
47147;SDS011;32900;47.498;8.738;2022-08-21T17:08:28;1.85;;;0.60;;
47147;SDS011;32900;47.498;8.738;2022-08-21T17:10:55;1.27;;;0.80;;
47147;SDS011;32900;47.498;8.738;2022-08-21T17:13:22;1.98;;;0.85;;
47147;SDS011;32900;47.498;8.738;2022-08-21T17:15:50;1.80;;;0.80;;
47147;SDS011;32900;47.498;8.738;2022-08-21T17:18:18;1.40;;;0.80;;
47147;SDS011;32900;47.498;8.738;2022-08-21T17:20:48;4.72;;;0.90;;
47147;SDS011;32900;47.498;8.738;2022-08-21T17:23:15;2.67;;;0.95;;
47147;SDS011;32900;47.498;8.738;2022-08-21T17:25:44;3.08;;;0.95;;
47147;SDS011;32900;47.498;8.738;2022-08-21T17:28:13;2.95;;;0.93;;
47147;SDS011;32900;47.498;8.738;2022-08-21T17:30:43;2.85;;;1.00;;
47147;SDS011;32900;47.498;8.738;2022-08-21T17:33:12;2.20;;;0.80;;